createdAt,value
2022-10-12T00:01:41.429Z,13.07
2022-10-12T00:04:08.283Z,13.57
2022-10-12T00:06:35.027Z,19.77
2022-10-12T00:09:01.702Z,12.10
2022-10-12T00:11:29.730Z,15.63
2022-10-12T00:13:56.741Z,10.67
2022-10-12T00:16:24.963Z,16.93
2022-10-12T00:18:53.700Z,13.37
2022-10-12T00:21:21.260Z,17.43
2022-10-12T00:23:48.949Z,11.67
2022-10-12T00:26:24.195Z,13.07
2022-10-12T00:28:57.145Z,12.23
2022-10-12T00:31:24.577Z,16.77
2022-10-12T00:33:51.943Z,13.33
2022-10-12T00:36:23.311Z,13.30
2022-10-12T00:38:51.533Z,12.00
2022-10-12T00:41:20.948Z,9.90
2022-10-12T00:43:51.793Z,14.73
2022-10-12T00:46:35.148Z,13.47
2022-10-12T00:49:04.528Z,15.63
2022-10-12T00:51:31.351Z,11.67
2022-10-12T00:54:05.851Z,12.80
2022-10-12T00:56:35.321Z,12.90
2022-10-12T00:59:05.131Z,12.63
2022-10-12T01:01:34.627Z,14.33
2022-10-12T01:04:01.665Z,12.37
2022-10-12T01:06:30.083Z,10.77
2022-10-12T01:08:57.646Z,12.67
2022-10-12T01:11:25.225Z,10.83
2022-10-12T01:13:51.895Z,13.57
2022-10-12T01:16:32.517Z,12.13
2022-10-12T01:19:02.158Z,15.37
2022-10-12T01:21:29.538Z,13.27
2022-10-12T01:24:22.841Z,13.03
2022-10-12T01:27:18.051Z,14.83
2022-10-12T01:30:07.884Z,13.03
2022-10-12T01:32:59.011Z,19.13
2022-10-12T01:35:50.019Z,11.00
2022-10-12T01:38:35.243Z,11.53
2022-10-12T01:41:27.496Z,15.70
2022-10-12T01:43:54.137Z,10.27
2022-10-12T01:46:24.639Z,10.97
2022-10-12T01:49:02.683Z,11.40
2022-10-12T01:51:55.008Z,12.83
2022-10-12T01:54:33.528Z,12.23
2022-10-12T01:57:28.711Z,11.13
2022-10-12T02:00:01.197Z,11.77
2022-10-12T02:02:35.948Z,10.93
2022-10-12T02:05:21.232Z,10.70
2022-10-12T02:08:09.799Z,10.10
2022-10-12T02:10:48.759Z,12.43
2022-10-12T02:13:16.706Z,12.07
2022-10-12T02:15:44.932Z,11.43
2022-10-12T02:18:15.787Z,11.03
2022-10-12T02:20:42.752Z,10.93
2022-10-12T02:23:11.352Z,11.70
2022-10-12T02:25:39.773Z,15.30
2022-10-12T02:28:11.308Z,12.30
2022-10-12T02:30:45.182Z,11.67
2022-10-12T02:33:21.476Z,13.63
2022-10-12T02:36:02.865Z,12.07
2022-10-12T02:38:35.338Z,12.07
2022-10-12T02:41:08.347Z,13.13
2022-10-12T02:43:44.320Z,12.60
2022-10-12T02:46:11.955Z,11.43
2022-10-12T02:48:40.476Z,11.17
2022-10-12T02:51:09.702Z,13.83
2022-10-12T02:53:36.447Z,10.03
2022-10-12T02:56:11.487Z,12.40
2022-10-12T02:58:38.281Z,11.27
2022-10-12T03:01:05.394Z,11.13
2022-10-12T03:03:32.115Z,10.77
2022-10-12T03:05:58.784Z,14.33
2022-10-12T03:08:27.685Z,14.57
2022-10-12T03:10:54.382Z,9.17
2022-10-12T03:13:21.007Z,8.47
2022-10-12T03:15:47.662Z,10.90
2022-10-12T03:18:14.419Z,10.40
2022-10-12T03:20:41.103Z,12.93
2022-10-12T03:23:07.749Z,10.23
2022-10-12T03:25:34.481Z,9.20
2022-10-12T03:28:01.204Z,13.20
2022-10-12T03:30:27.865Z,12.23
2022-10-12T03:32:54.557Z,10.87
2022-10-12T03:35:21.234Z,12.70
2022-10-12T03:37:47.924Z,10.47
2022-10-12T03:40:14.660Z,9.83
2022-10-12T03:42:41.324Z,10.37
2022-10-12T03:45:09.214Z,11.77
2022-10-12T03:47:36.356Z,10.47
2022-10-12T03:50:03.523Z,12.23
2022-10-12T03:52:30.204Z,8.87
2022-10-12T03:54:56.838Z,9.43
2022-10-12T03:57:23.494Z,14.40
2022-10-12T03:59:50.162Z,12.87
2022-10-12T04:02:17.356Z,10.07
2022-10-12T04:04:44.231Z,14.53
2022-10-12T04:07:10.926Z,10.40
2022-10-12T04:09:37.620Z,15.13
2022-10-12T04:12:04.428Z,11.97
2022-10-12T04:14:31.091Z,12.43
2022-10-12T04:16:57.907Z,12.23
2022-10-12T04:19:24.657Z,15.83
2022-10-12T04:21:51.377Z,14.40
2022-10-12T04:24:18.088Z,11.23
2022-10-12T04:26:44.798Z,13.13
2022-10-12T04:29:13.991Z,14.13
2022-10-12T04:31:41.232Z,13.53
2022-10-12T04:34:09.840Z,12.70
2022-10-12T04:36:36.493Z,11.00
2022-10-12T04:39:03.729Z,12.07
2022-10-12T04:41:30.537Z,12.03
2022-10-12T04:43:57.274Z,18.70
2022-10-12T04:46:23.901Z,13.03
2022-10-12T04:48:50.575Z,14.67
2022-10-12T04:51:17.229Z,12.03
2022-10-12T04:53:44.096Z,13.83
2022-10-12T04:56:10.794Z,11.80
2022-10-12T04:58:37.603Z,12.93
2022-10-12T05:01:04.908Z,11.27
2022-10-12T05:03:31.619Z,14.53
2022-10-12T05:05:58.291Z,14.40
2022-10-12T05:08:25.576Z,21.13
2022-10-12T05:10:52.359Z,15.10
2022-10-12T05:13:19.256Z,15.67
2022-10-12T05:15:45.954Z,12.87
2022-10-12T05:18:12.575Z,12.03
2022-10-12T05:20:39.252Z,10.77
2022-10-12T05:23:05.955Z,16.30
2022-10-12T05:25:35.158Z,10.17
2022-10-12T05:28:02.114Z,13.73
2022-10-12T05:30:28.819Z,11.97
2022-10-12T05:32:55.644Z,12.00
2022-10-12T05:35:22.400Z,15.87
2022-10-12T05:37:49.095Z,14.07
2022-10-12T05:40:16.153Z,14.87
2022-10-12T05:42:44.505Z,12.90
2022-10-12T05:45:11.773Z,13.50
2022-10-12T05:47:38.661Z,21.20
2022-10-12T05:50:06.072Z,14.67
2022-10-12T05:52:32.764Z,12.20
2022-10-12T05:54:59.393Z,15.27
2022-10-12T05:57:26.060Z,15.13
2022-10-12T05:59:52.816Z,12.90
2022-10-12T06:02:19.636Z,13.90
2022-10-12T06:04:46.377Z,15.53
2022-10-12T06:07:13.033Z,20.30
2022-10-12T06:09:39.998Z,14.30
2022-10-12T06:12:07.585Z,13.37
2022-10-12T06:14:34.586Z,12.60
2022-10-12T06:17:01.510Z,11.97
2022-10-12T06:19:28.155Z,11.00
2022-10-12T06:21:54.863Z,12.47
2022-10-12T06:24:21.543Z,11.07
2022-10-12T06:26:48.197Z,16.70
2022-10-12T06:29:15.023Z,9.90
2022-10-12T06:31:41.703Z,13.13
2022-10-12T06:34:08.418Z,12.63
2022-10-12T06:36:35.111Z,9.93
2022-10-12T06:39:01.871Z,11.97
2022-10-12T06:41:28.554Z,10.40
2022-10-12T06:43:55.275Z,11.60
2022-10-12T06:46:21.946Z,13.23
2022-10-12T06:48:48.595Z,12.57
2022-10-12T06:51:15.402Z,12.23
2022-10-12T06:53:42.110Z,11.40
2022-10-12T06:56:09.856Z,14.60
2022-10-12T06:58:36.945Z,13.80
2022-10-12T07:01:08.347Z,14.80
2022-10-12T07:03:35.267Z,16.47
2022-10-12T07:06:09.320Z,15.63
2022-10-12T07:08:36.374Z,18.40
2022-10-12T07:11:05.155Z,15.43
2022-10-12T07:13:32.479Z,13.20
2022-10-12T07:15:59.227Z,17.77
2022-10-12T07:18:26.119Z,15.73
2022-10-12T07:20:55.013Z,14.73
2022-10-12T07:23:21.640Z,16.60
2022-10-12T07:25:52.187Z,11.93
2022-10-12T07:28:20.531Z,14.17
2022-10-12T07:30:48.095Z,12.03
2022-10-12T07:33:14.935Z,11.53
2022-10-12T07:36:03.241Z,14.57
2022-10-12T07:38:28.616Z,13.67
2022-10-12T07:40:58.043Z,15.43
2022-10-12T07:43:24.651Z,15.13
2022-10-12T07:45:51.290Z,15.00
2022-10-12T07:48:18.148Z,13.23
2022-10-12T07:50:44.872Z,17.27
2022-10-12T07:53:11.547Z,22.03
2022-10-12T07:55:38.207Z,14.47
2022-10-12T07:58:05.143Z,11.60
2022-10-12T08:00:32.589Z,12.23
2022-10-12T08:02:59.396Z,14.03
2022-10-12T08:05:27.264Z,14.93
2022-10-12T08:07:54.763Z,16.57
2022-10-12T08:10:21.797Z,15.93
2022-10-12T08:12:52.041Z,16.40
2022-10-12T08:15:19.358Z,17.53
2022-10-12T08:17:46.064Z,14.13
2022-10-12T08:20:12.935Z,16.73
2022-10-12T08:22:39.612Z,12.33
2022-10-12T08:25:06.756Z,14.07
2022-10-12T08:27:33.436Z,13.10
2022-10-12T08:30:00.149Z,15.10
2022-10-12T08:32:27.204Z,16.07
2022-10-12T08:34:53.838Z,16.50
2022-10-12T08:37:20.599Z,15.50
2022-10-12T08:39:47.273Z,14.23
2022-10-12T08:42:26.998Z,21.20
2022-10-12T08:45:21.146Z,15.23
2022-10-12T08:47:54.981Z,12.43
2022-10-12T08:50:33.753Z,13.97
2022-10-12T08:53:22.740Z,15.40
2022-10-12T08:55:49.425Z,15.93
2022-10-12T08:58:20.661Z,16.73
2022-10-12T09:01:06.517Z,17.27
2022-10-12T09:03:47.908Z,18.90
2022-10-12T09:06:20.071Z,15.50
2022-10-12T09:08:46.678Z,14.90
2022-10-12T09:11:30.771Z,17.17
2022-10-12T09:14:26.755Z,20.80
2022-10-12T09:16:55.351Z,15.80
2022-10-12T09:19:49.741Z,15.87
2022-10-12T09:22:19.809Z,17.37
2022-10-12T09:24:48.948Z,18.00
2022-10-12T09:27:19.469Z,27.73
2022-10-12T09:29:49.760Z,16.03
2022-10-12T09:32:48.206Z,21.30
2022-10-12T09:35:15.490Z,22.50
2022-10-12T09:37:43.746Z,30.10
2022-10-12T09:40:22.617Z,19.67
2022-10-12T09:42:50.129Z,22.30
2022-10-12T09:45:19.703Z,24.77
2022-10-12T09:48:20.104Z,20.90
2022-10-12T09:51:00.311Z,21.13
2022-10-12T09:53:33.783Z,19.77
2022-10-12T09:56:04.935Z,19.03
2022-10-12T09:59:11.587Z,24.50
2022-10-12T10:01:39.108Z,24.73
2022-10-12T10:04:23.485Z,22.73
2022-10-12T10:06:50.901Z,23.17
2022-10-12T10:09:35.057Z,19.87
2022-10-12T10:12:24.209Z,22.10
2022-10-12T10:14:52.144Z,22.00
2022-10-12T10:17:26.832Z,19.03
2022-10-12T10:19:55.727Z,15.97
2022-10-12T10:22:23.603Z,20.57
2022-10-12T10:25:00.470Z,27.83
2022-10-12T10:27:39.217Z,22.30
2022-10-12T10:30:29.755Z,23.63
2022-10-12T10:33:18.343Z,18.87
2022-10-12T10:35:58.061Z,22.70
2022-10-12T10:38:25.342Z,23.03
2022-10-12T10:40:54.570Z,27.97
2022-10-12T10:43:28.810Z,23.20
2022-10-12T10:46:02.142Z,19.07
2022-10-12T10:48:32.297Z,24.50
2022-10-12T10:51:02.764Z,22.93
2022-10-12T10:53:47.311Z,27.10
2022-10-12T10:56:22.860Z,21.73
2022-10-12T10:58:57.335Z,20.77
2022-10-12T11:01:23.981Z,25.47
2022-10-12T11:04:13.601Z,23.20
2022-10-12T11:06:47.519Z,22.17
2022-10-12T11:09:21.571Z,29.73
2022-10-12T11:11:56.043Z,23.50
2022-10-12T11:14:28.667Z,25.33
2022-10-12T11:17:03.892Z,22.97
2022-10-12T11:19:51.834Z,21.43
2022-10-12T11:22:31.124Z,19.83
2022-10-12T11:25:00.730Z,27.27
2022-10-12T11:27:37.279Z,27.57
2022-10-12T11:30:13.538Z,24.13
2022-10-12T11:32:45.150Z,26.13
2022-10-12T11:35:26.786Z,22.80
2022-10-12T11:38:18.601Z,23.60
2022-10-12T11:41:19.083Z,27.67
2022-10-12T11:43:57.462Z,27.57
2022-10-12T11:46:37.222Z,29.97
2022-10-12T11:49:19.177Z,22.70
2022-10-12T11:51:48.673Z,19.30
2022-10-12T11:54:28.441Z,18.43
2022-10-12T11:57:01.752Z,22.70
2022-10-12T11:59:38.101Z,22.37
2022-10-12T12:02:26.022Z,21.50
2022-10-12T12:04:53.376Z,22.23
2022-10-12T12:07:23.223Z,19.03
2022-10-12T12:09:51.571Z,21.90
2022-10-12T12:12:27.521Z,20.93
2022-10-12T12:14:54.132Z,21.87
2022-10-12T12:17:20.828Z,18.60
2022-10-12T12:19:49.650Z,23.17
2022-10-12T12:22:18.287Z,25.03
2022-10-12T12:25:08.383Z,22.57
2022-10-12T12:27:37.099Z,24.60
2022-10-12T12:30:26.532Z,19.67
2022-10-12T12:32:57.758Z,25.67
2022-10-12T12:35:32.154Z,20.00
2022-10-12T12:38:13.857Z,17.93
2022-10-12T12:40:41.851Z,21.90
2022-10-12T12:43:30.121Z,19.67
2022-10-12T12:45:59.852Z,17.90
2022-10-12T12:48:44.940Z,26.87
2022-10-12T12:51:20.650Z,14.37
2022-10-12T12:54:11.438Z,15.77
2022-10-12T12:57:08.895Z,20.30
2022-10-12T13:00:01.734Z,16.97
2022-10-12T13:02:53.350Z,24.93
2022-10-12T13:05:38.941Z,18.23
2022-10-12T13:08:14.525Z,15.53
2022-10-12T13:11:22.508Z,19.00
2022-10-12T13:14:06.845Z,18.87
2022-10-12T13:17:30.773Z,25.67
2022-10-12T13:19:26.682Z,19.47
2022-10-12T13:21:55.910Z,17.30
2022-10-12T13:24:24.350Z,21.23
2022-10-12T13:26:55.379Z,21.07
2022-10-12T13:29:35.726Z,19.13
2022-10-12T13:32:05.631Z,17.90
2022-10-12T13:34:41.067Z,19.97
2022-10-12T13:37:15.717Z,18.90
2022-10-12T13:39:47.000Z,17.27
2022-10-12T13:42:27.683Z,16.27
2022-10-12T13:44:54.449Z,17.77
2022-10-12T13:47:32.760Z,17.13
2022-10-12T13:50:00.102Z,19.50
2022-10-12T13:52:32.738Z,19.00
2022-10-12T13:55:00.915Z,20.53
2022-10-12T13:57:48.372Z,21.57
2022-10-12T14:00:25.345Z,23.53
2022-10-12T14:03:06.504Z,26.60
2022-10-12T14:05:33.896Z,27.00
2022-10-12T14:08:06.874Z,24.63
2022-10-12T14:10:36.524Z,26.83
2022-10-12T14:13:05.001Z,27.43
2022-10-12T14:15:35.558Z,25.77
2022-10-12T14:18:03.266Z,19.63
2022-10-12T14:20:39.028Z,29.30
2022-10-12T14:23:17.142Z,26.77
2022-10-12T14:25:54.009Z,25.37
2022-10-12T14:28:35.274Z,25.83
2022-10-12T14:31:02.651Z,26.40
2022-10-12T14:33:30.917Z,24.47
2022-10-12T14:36:13.067Z,25.63
2022-10-12T14:38:39.753Z,23.93
2022-10-12T14:41:28.532Z,23.07
2022-10-12T14:44:13.552Z,23.67
2022-10-12T14:47:00.400Z,26.17
2022-10-12T14:49:39.256Z,28.17
2022-10-12T14:52:07.290Z,28.47
2022-10-12T14:54:33.928Z,22.30
2022-10-12T14:57:16.020Z,31.00
2022-10-12T14:59:43.032Z,24.10
2022-10-12T15:02:18.818Z,25.63
2022-10-12T15:04:46.449Z,30.33
2022-10-12T15:07:20.444Z,24.83
2022-10-12T15:09:47.776Z,27.97
2022-10-12T15:12:19.059Z,25.17
2022-10-12T15:14:46.889Z,26.60
2022-10-12T15:17:15.072Z,28.10
2022-10-12T15:19:43.361Z,23.43
2022-10-12T15:22:23.603Z,26.77
2022-10-12T15:24:51.978Z,23.87
2022-10-12T15:27:18.868Z,24.50
2022-10-12T15:29:47.877Z,30.30
2022-10-12T15:32:16.628Z,30.03
2022-10-12T15:34:43.572Z,28.03
2022-10-12T15:37:10.386Z,26.90
2022-10-12T15:39:37.262Z,27.90
2022-10-12T15:42:04.532Z,32.53
2022-10-12T15:44:31.239Z,30.13
2022-10-12T15:47:00.533Z,26.23
2022-10-12T15:49:27.303Z,28.80
2022-10-12T15:51:54.843Z,33.93
2022-10-12T15:54:22.346Z,29.57
2022-10-12T15:56:49.335Z,28.03
2022-10-12T15:59:16.017Z,28.80
2022-10-12T16:01:43.244Z,27.40
2022-10-12T16:04:14.865Z,25.67
2022-10-12T16:06:41.852Z,25.00
2022-10-12T16:09:08.735Z,28.23
2022-10-12T16:11:35.407Z,30.43
2022-10-12T16:14:02.230Z,30.10
2022-10-12T16:16:31.245Z,25.67
2022-10-12T16:18:58.168Z,26.40
2022-10-12T16:21:24.917Z,28.70
2022-10-12T16:23:51.612Z,26.67
2022-10-12T16:26:18.421Z,24.97
2022-10-12T16:28:45.151Z,30.90
2022-10-12T16:31:15.423Z,27.77
2022-10-12T16:33:42.315Z,27.67
2022-10-12T16:36:11.619Z,31.07
2022-10-12T16:38:38.310Z,32.17
2022-10-12T16:41:12.663Z,28.43
2022-10-12T16:43:39.972Z,28.80
2022-10-12T16:46:07.617Z,31.27
2022-10-12T16:48:35.274Z,31.93
2022-10-12T16:51:05.840Z,32.00
2022-10-12T16:53:32.500Z,32.43
2022-10-12T16:55:59.180Z,29.77
2022-10-12T16:58:25.889Z,31.37
2022-10-12T17:00:53.173Z,29.70
2022-10-12T17:03:19.929Z,31.33
2022-10-12T17:05:46.581Z,31.93
2022-10-12T17:08:15.549Z,29.50
2022-10-12T17:10:44.319Z,28.57
2022-10-12T17:13:13.390Z,31.43
2022-10-12T17:15:41.878Z,32.43
2022-10-12T17:18:09.006Z,25.70
2022-10-12T17:20:36.597Z,29.77
2022-10-12T17:23:03.681Z,34.43
2022-10-12T17:25:30.587Z,38.03
2022-10-12T17:27:57.244Z,27.67
2022-10-12T17:30:24.278Z,35.40
2022-10-12T17:32:51.028Z,29.40
2022-10-12T17:35:18.053Z,22.50
2022-10-12T17:37:44.792Z,26.40
2022-10-12T17:40:11.706Z,25.40
2022-10-12T17:42:39.708Z,26.30
2022-10-12T17:45:06.839Z,24.83
2022-10-12T17:47:33.563Z,25.20
2022-10-12T17:50:00.276Z,25.07
2022-10-12T17:52:26.960Z,25.37
2022-10-12T17:54:53.606Z,26.60
2022-10-12T17:57:20.717Z,26.93
2022-10-12T17:59:47.648Z,21.83
2022-10-12T18:02:14.313Z,24.53
2022-10-12T18:04:40.958Z,28.23
2022-10-12T18:07:07.708Z,24.17
2022-10-12T18:09:34.416Z,25.17
2022-10-12T18:12:01.055Z,23.97
2022-10-12T18:14:27.776Z,28.17
2022-10-12T18:16:54.471Z,27.60
2022-10-12T18:19:21.227Z,26.47
2022-10-12T18:21:47.985Z,29.97
2022-10-12T18:24:17.813Z,27.40
2022-10-12T18:26:46.977Z,25.60
2022-10-12T18:29:14.220Z,25.40
2022-10-12T18:31:41.394Z,28.43
2022-10-12T18:34:08.188Z,28.77
2022-10-12T18:36:34.820Z,25.47
2022-10-12T18:39:04.006Z,29.00
2022-10-12T18:41:31.348Z,26.53
2022-10-12T18:43:59.985Z,26.40
2022-10-12T18:46:28.537Z,25.93
2022-10-12T18:48:55.977Z,31.10
2022-10-12T18:51:27.399Z,32.10
2022-10-12T18:53:54.773Z,25.30
2022-10-12T18:56:21.764Z,35.73
2022-10-12T18:58:49.115Z,24.37
2022-10-12T19:01:21.373Z,29.93
2022-10-12T19:03:48.698Z,29.43
2022-10-12T19:06:19.253Z,25.30
2022-10-12T19:08:47.852Z,26.93
2022-10-12T19:11:15.771Z,26.13
2022-10-12T19:13:42.512Z,29.67
2022-10-12T19:16:11.804Z,25.43
2022-10-12T19:18:40.030Z,33.30
2022-10-12T19:21:26.365Z,29.83
2022-10-12T19:23:53.445Z,30.80
2022-10-12T19:26:26.720Z,29.57
2022-10-12T19:28:55.533Z,27.27
2022-10-12T19:31:25.422Z,28.17
2022-10-12T19:33:58.514Z,35.23
2022-10-12T19:36:26.069Z,29.30
2022-10-12T19:38:56.369Z,28.23
2022-10-12T19:41:23.584Z,30.70
2022-10-12T19:43:50.504Z,28.30
2022-10-12T19:46:17.157Z,30.00
2022-10-12T19:48:47.987Z,28.40
2022-10-12T19:51:14.760Z,27.57
2022-10-12T19:53:41.708Z,29.73
2022-10-12T19:56:10.614Z,27.30
2022-10-12T19:58:37.458Z,27.33
2022-10-12T20:01:11.053Z,29.53
2022-10-12T20:03:38.705Z,37.43
2022-10-12T20:06:09.139Z,30.03
2022-10-12T20:08:41.006Z,33.97
2022-10-12T20:11:08.631Z,30.23
2022-10-12T20:13:35.913Z,28.50
2022-10-12T20:16:03.478Z,33.53
2022-10-12T20:18:31.227Z,32.30
2022-10-12T20:20:58.464Z,31.23
2022-10-12T20:23:25.112Z,31.93
2022-10-12T20:25:53.729Z,31.43
2022-10-12T20:28:21.783Z,28.23
2022-10-12T20:30:49.032Z,31.80
2022-10-12T20:33:16.208Z,28.13
2022-10-12T20:35:50.126Z,26.50
2022-10-12T20:38:18.074Z,30.03
2022-10-12T20:40:48.574Z,30.60
2022-10-12T20:43:16.025Z,28.90
2022-10-12T20:45:42.883Z,29.53
2022-10-12T20:48:09.585Z,30.57
2022-10-12T20:50:37.299Z,37.83
2022-10-12T20:53:03.991Z,28.83
2022-10-12T20:55:30.621Z,31.10
2022-10-12T20:57:57.304Z,31.37
2022-10-12T21:00:23.958Z,32.87
2022-10-12T21:02:50.634Z,32.20
2022-10-12T21:05:17.362Z,24.73
2022-10-12T21:07:44.045Z,24.23
2022-10-12T21:10:11.017Z,35.33
2022-10-12T21:12:37.726Z,34.50
2022-10-12T21:15:04.890Z,24.03
2022-10-12T21:17:31.589Z,27.93
2022-10-12T21:19:58.260Z,27.20
2022-10-12T21:22:25.378Z,23.40
2022-10-12T21:24:52.057Z,23.87
2022-10-12T21:27:18.737Z,26.70
2022-10-12T21:29:45.426Z,25.87
2022-10-12T21:32:12.117Z,22.80
2022-10-12T21:34:38.754Z,23.83
2022-10-12T21:37:05.413Z,25.30
2022-10-12T21:39:32.097Z,27.80
2022-10-12T21:41:58.848Z,27.30
2022-10-12T21:44:25.533Z,24.80
2022-10-12T21:46:52.233Z,24.10
2022-10-12T21:49:18.882Z,25.00
2022-10-12T21:51:45.607Z,23.70
2022-10-12T21:54:12.358Z,29.00
2022-10-12T21:56:39.094Z,28.50
2022-10-12T21:59:06.618Z,24.17
2022-10-12T22:01:36.793Z,28.93
2022-10-12T22:04:06.675Z,31.90
2022-10-12T22:06:34.787Z,23.07
2022-10-12T22:09:05.255Z,23.93
2022-10-12T22:11:33.451Z,26.53
2022-10-12T22:14:02.803Z,26.23
2022-10-12T22:16:29.936Z,26.07
2022-10-12T22:19:00.779Z,25.23
2022-10-12T22:21:28.087Z,27.90
2022-10-12T22:23:54.758Z,24.23
2022-10-12T22:26:23.184Z,25.20
2022-10-12T22:28:50.306Z,27.87
2022-10-12T22:31:19.442Z,30.00
2022-10-12T22:33:46.410Z,24.00
2022-10-12T22:36:14.157Z,25.63
2022-10-12T22:38:41.504Z,25.80
2022-10-12T22:41:11.368Z,25.03
2022-10-12T22:43:38.682Z,30.70
2022-10-12T22:46:05.714Z,25.90
2022-10-12T22:48:32.886Z,24.57
2022-10-12T22:50:59.563Z,25.50
2022-10-12T22:53:26.682Z,27.13
2022-10-12T22:56:06.000Z,25.93
2022-10-12T22:58:34.206Z,27.80
2022-10-12T23:01:06.080Z,28.50
2022-10-12T23:03:33.896Z,28.27
2022-10-12T23:06:00.861Z,24.83
2022-10-12T23:08:29.963Z,26.77
2022-10-12T23:11:05.618Z,26.50
2022-10-12T23:13:33.871Z,26.50
2022-10-12T23:16:06.261Z,22.80
2022-10-12T23:18:34.079Z,29.70
2022-10-12T23:21:04.836Z,23.93
2022-10-12T23:23:32.658Z,25.80
2022-10-12T23:26:02.012Z,28.23
2022-10-12T23:28:29.001Z,24.87
2022-10-12T23:30:56.088Z,24.73
2022-10-12T23:33:22.815Z,30.27
2022-10-12T23:36:00.334Z,26.20
2022-10-12T23:38:29.474Z,25.33
2022-10-12T23:40:56.791Z,26.37
2022-10-12T23:43:23.621Z,27.80
2022-10-12T23:45:50.353Z,25.83
2022-10-12T23:48:17.078Z,21.90
2022-10-12T23:50:43.811Z,26.47
2022-10-12T23:53:10.624Z,24.90
2022-10-12T23:55:37.278Z,27.03
2022-10-12T23:58:04.423Z,26.87
